CYBW/YBW METAR and TAF weather

Enter ICAO airport designator
Station Type Date Time Source
CYBW METAR 2019/02/23 17:45 UTC NOAA

CYBW 231745Z AUTO 02007KT 6SM HZ SCT031 OVC039 M16/M20 A3017 RMK SLP303


Station Type Date Time Source
CYBW Decoded METAR 2019/02/23 17:45 UTC NOAA

Calgary / Springbank, Canada (CYBW) 51-06N 114-22W
Feb 23, 2019 - 12:45 PM EST / 2019.02.23 1745 UTC
Wind: from the NNE (020 degrees) at 8 MPH (7 KT):0
Visibility: 6 mile(s):0
Sky conditions: overcast
Weather: haze
Temperature: 3 F (-16 C)
Windchill: -11 F (-24 C):2
Dew Point: -4 F (-20 C)
Relative Humidity: 71%
Pressure (altimeter): 30.17 in. Hg (1021 hPa)
ob: CYBW 231745Z AUTO 02007KT 6SM HZ SCT031 OVC039 M16/M20 A3017 RMK SLP303
cycle: 18

Station Type Date Time Source
CYBW TAF 2019/02/23 18:00 UTC NOAA

TAF CYBW 231743Z 2318/2405 36012KT P6SM SCT020 OVC040
TEMPO 2318/2321 2SM -SN BR BKN020 OVC030
FM232100 36005KT P6SM SCT030 BKN050
TEMPO 2321/2402 5SM -SN BKN030 OVC050
FM240200 VRB03KT P6SM SCT012 BKN030
TEMPO 2402/2405 3SM -SN BR OVC012
RMK FCST BASED ON AUTO OBS. NXT FCST BY 240000Z


Example: see airport list